sensor_id;sensor_type;location;lat;lon;timestamp;pressure;altitude;pressure_sealevel;temperature;humidity
56504;BME280;48812;51.606;-0.114;2023-03-24T00:02:19;98864.34;;;17.54;58.88
56504;BME280;48812;51.606;-0.114;2023-03-24T00:04:59;98863.47;;;17.53;59.09
56504;BME280;48812;51.606;-0.114;2023-03-24T00:07:39;98864.47;;;17.52;58.87
56504;BME280;48812;51.606;-0.114;2023-03-24T00:10:19;98872.59;;;17.50;58.92
56504;BME280;48812;51.606;-0.114;2023-03-24T00:12:59;98877.06;;;17.50;59.38
56504;BME280;48812;51.606;-0.114;2023-03-24T00:15:39;98869.06;;;17.50;58.63
56504;BME280;48812;51.606;-0.114;2023-03-24T00:18:19;98879.00;;;17.48;59.20
56504;BME280;48812;51.606;-0.114;2023-03-24T00:20:59;98883.41;;;17.49;58.72
56504;BME280;48812;51.606;-0.114;2023-03-24T00:23:39;98883.53;;;17.47;58.68
56504;BME280;48812;51.606;-0.114;2023-03-24T00:26:20;98888.00;;;17.47;59.34
56504;BME280;48812;51.606;-0.114;2023-03-24T00:29:00;98888.00;;;17.47;59.02
56504;BME280;48812;51.606;-0.114;2023-03-24T00:31:40;98890.81;;;17.45;58.51
56504;BME280;48812;51.606;-0.114;2023-03-24T00:34:19;98891.88;;;17.43;59.09
56504;BME280;48812;51.606;-0.114;2023-03-24T00:36:59;98899.91;;;17.43;58.90
56504;BME280;48812;51.606;-0.114;2023-03-24T00:39:41;98899.91;;;17.43;59.45
56504;BME280;48812;51.606;-0.114;2023-03-24T00:42:19;98900.84;;;17.42;59.15
56504;BME280;48812;51.606;-0.114;2023-03-24T00:44:59;98897.34;;;17.41;59.05
56504;BME280;48812;51.606;-0.114;2023-03-24T00:47:39;98890.41;;;17.39;59.06
56504;BME280;48812;51.606;-0.114;2023-03-24T00:50:19;98896.63;;;17.39;58.90
56504;BME280;48812;51.606;-0.114;2023-03-24T00:52:59;98896.63;;;17.39;58.33
56504;BME280;48812;51.606;-0.114;2023-03-24T00:55:39;98909.25;;;17.37;58.75
56504;BME280;48812;51.606;-0.114;2023-03-24T00:58:19;98912.03;;;17.36;58.65
56504;BME280;48812;51.606;-0.114;2023-03-24T01:00:59;98910.31;;;17.35;58.80
56504;BME280;48812;51.606;-0.114;2023-03-24T01:03:39;98908.59;;;17.33;59.08
56504;BME280;48812;51.606;-0.114;2023-03-24T01:06:29;98906.91;;;17.32;59.02
56504;BME280;48812;51.606;-0.114;2023-03-24T01:09:09;98919.41;;;17.32;59.04
56504;BME280;48812;51.606;-0.114;2023-03-24T01:11:49;98916.84;;;17.30;58.92
56504;BME280;48812;51.606;-0.114;2023-03-24T01:14:30;98924.03;;;17.30;59.39
56504;BME280;48812;51.606;-0.114;2023-03-24T01:17:09;98918.78;;;17.28;59.12
56504;BME280;48812;51.606;-0.114;2023-03-24T01:19:49;98926.91;;;17.27;58.71
56504;BME280;48812;51.606;-0.114;2023-03-24T01:22:29;98914.44;;;17.27;58.71
56504;BME280;48812;51.606;-0.114;2023-03-24T01:25:20;98921.56;;;17.27;59.10
56504;BME280;48812;51.606;-0.114;2023-03-24T01:27:59;98923.47;;;17.25;58.87
56504;BME280;48812;51.606;-0.114;2023-03-24T01:30:39;98932.34;;;17.25;59.15
56504;BME280;48812;51.606;-0.114;2023-03-24T01:33:19;98916.53;;;17.22;58.84
56504;BME280;48812;51.606;-0.114;2023-03-24T01:35:59;98930.75;;;17.23;58.78
56504;BME280;48812;51.606;-0.114;2023-03-24T01:38:39;98925.66;;;17.20;58.91
56504;BME280;48812;51.606;-0.114;2023-03-24T01:41:19;98932.81;;;17.19;58.82
56504;BME280;48812;51.606;-0.114;2023-03-24T01:43:59;98932.94;;;17.18;59.31
56504;BME280;48812;51.606;-0.114;2023-03-24T01:46:39;98936.44;;;17.18;58.98
56504;BME280;48812;51.606;-0.114;2023-03-24T01:49:19;98934.72;;;17.17;58.88
56504;BME280;48812;51.606;-0.114;2023-03-24T01:52:00;98944.69;;;17.15;59.21
56504;BME280;48812;51.606;-0.114;2023-03-24T01:54:42;98942.00;;;17.15;59.02
56504;BME280;48812;51.606;-0.114;2023-03-24T01:57:38;98948.31;;;17.14;59.03
56504;BME280;48812;51.606;-0.114;2023-03-24T02:00:19;98951.25;;;17.11;59.13
56504;BME280;48812;51.606;-0.114;2023-03-24T02:03:29;98960.19;;;17.10;58.95
56504;BME280;48812;51.606;-0.114;2023-03-24T02:06:09;98966.38;;;17.10;59.29
56504;BME280;48812;51.606;-0.114;2023-03-24T02:08:55;98965.53;;;17.10;59.07
56504;BME280;48812;51.606;-0.114;2023-03-24T02:11:40;98972.81;;;17.08;59.02
56504;BME280;48812;51.606;-0.114;2023-03-24T02:14:19;98987.00;;;17.08;59.02
56504;BME280;48812;51.606;-0.114;2023-03-24T02:17:35;98972.81;;;17.08;59.38
56504;BME280;48812;51.606;-0.114;2023-03-24T02:32:51;98985.66;;;17.03;58.89
56504;BME280;48812;51.606;-0.114;2023-03-24T02:41:30;99005.53;;;16.99;58.64
56504;BME280;48812;51.606;-0.114;2023-03-24T02:44:16;99006.47;;;16.98;58.95
56504;BME280;48812;51.606;-0.114;2023-03-24T02:47:24;99008.41;;;16.95;58.31
56504;BME280;48812;51.606;-0.114;2023-03-24T02:50:23;99006.63;;;16.96;58.62
56504;BME280;48812;51.606;-0.114;2023-03-24T02:55:52;99012.19;;;16.93;58.09
56504;BME280;48812;51.606;-0.114;2023-03-24T02:58:51;99014.97;;;16.91;58.79
56504;BME280;48812;51.606;-0.114;2023-03-24T03:01:40;99013.25;;;16.90;58.37
56504;BME280;48812;51.606;-0.114;2023-03-24T03:05:26;99012.41;;;16.90;58.68
56504;BME280;48812;51.606;-0.114;2023-03-24T03:08:01;99019.69;;;16.88;58.69
56504;BME280;48812;51.606;-0.114;2023-03-24T03:10:44;99022.34;;;16.88;58.40
56504;BME280;48812;51.606;-0.114;2023-03-24T03:13:36;99015.28;;;16.87;58.40
56504;BME280;48812;51.606;-0.114;2023-03-24T03:16:27;99015.41;;;16.85;58.60
56504;BME280;48812;51.606;-0.114;2023-03-24T03:19:19;99026.06;;;16.85;58.64
56504;BME280;48812;51.606;-0.114;2023-03-24T03:22:01;99021.78;;;16.83;58.42
56504;BME280;48812;51.606;-0.114;2023-03-24T03:24:41;99020.94;;;16.82;58.32
56504;BME280;48812;51.606;-0.114;2023-03-24T03:27:23;99020.22;;;16.80;58.77
56504;BME280;48812;51.606;-0.114;2023-03-24T03:30:03;99018.38;;;16.81;58.70
56504;BME280;48812;51.606;-0.114;2023-03-24T03:32:43;99017.53;;;16.80;58.53
56504;BME280;48812;51.606;-0.114;2023-03-24T03:36:37;99016.69;;;16.80;58.35
56504;BME280;48812;51.606;-0.114;2023-03-24T03:38:58;99022.03;;;16.80;58.69
56504;BME280;48812;51.606;-0.114;2023-03-24T03:41:39;99024.81;;;16.78;58.39
56504;BME280;48812;51.606;-0.114;2023-03-24T03:44:19;99026.72;;;16.76;58.12
56504;BME280;48812;51.606;-0.114;2023-03-24T03:46:59;99025.88;;;16.75;57.98
56504;BME280;48812;51.606;-0.114;2023-03-24T03:49:49;99025.03;;;16.75;58.49
56504;BME280;48812;51.606;-0.114;2023-03-24T03:52:29;99028.66;;;16.74;58.58
56504;BME280;48812;51.606;-0.114;2023-03-24T03:55:10;99039.44;;;16.72;58.08
56504;BME280;48812;51.606;-0.114;2023-03-24T03:57:49;99030.59;;;16.72;58.69
56504;BME280;48812;51.606;-0.114;2023-03-24T04:00:49;99029.75;;;16.71;58.25
56504;BME280;48812;51.606;-0.114;2023-03-24T04:04:35;99043.19;;;16.70;58.25
56504;BME280;48812;51.606;-0.114;2023-03-24T04:11:16;99048.97;;;16.64;58.37
56504;BME280;48812;51.606;-0.114;2023-03-24T04:17:45;99056.97;;;16.64;58.40
56504;BME280;48812;51.606;-0.114;2023-03-24T04:24:01;99056.22;;;16.62;58.33
56504;BME280;48812;51.606;-0.114;2023-03-24T04:26:47;99064.34;;;16.60;58.13
56504;BME280;48812;51.606;-0.114;2023-03-24T04:32:51;99068.81;;;16.59;58.45
56504;BME280;48812;51.606;-0.114;2023-03-24T04:36:01;99075.22;;;16.57;58.28
56504;BME280;48812;51.606;-0.114;2023-03-24T04:39:00;99075.22;;;16.57;58.20
56504;BME280;48812;51.606;-0.114;2023-03-24T04:41:49;99070.84;;;16.56;58.31
56504;BME280;48812;51.606;-0.114;2023-03-24T04:44:40;99072.66;;;16.55;58.48
56504;BME280;48812;51.606;-0.114;2023-03-24T04:47:52;99073.72;;;16.53;58.31
56504;BME280;48812;51.606;-0.114;2023-03-24T04:50:41;99084.38;;;16.53;58.36
56504;BME280;48812;51.606;-0.114;2023-03-24T04:53:29;99080.88;;;16.52;58.50
56504;BME280;48812;51.606;-0.114;2023-03-24T04:56:27;99076.50;;;16.51;58.28
56504;BME280;48812;51.606;-0.114;2023-03-24T04:59:39;99082.03;;;16.48;58.21
56504;BME280;48812;51.606;-0.114;2023-03-24T05:02:19;99090.03;;;16.48;58.46
56504;BME280;48812;51.606;-0.114;2023-03-24T05:05:09;99082.16;;;16.47;58.33
56504;BME280;48812;51.606;-0.114;2023-03-24T05:07:59;99089.31;;;16.46;58.14
56504;BME280;48812;51.606;-0.114;2023-03-24T05:10:39;99088.56;;;16.44;58.70
56504;BME280;48812;51.606;-0.114;2023-03-24T05:13:19;99091.22;;;16.44;58.02
56504;BME280;48812;51.606;-0.114;2023-03-24T05:15:59;99091.22;;;16.44;58.10
56504;BME280;48812;51.606;-0.114;2023-03-24T05:18:39;99100.19;;;16.43;58.60
56504;BME280;48812;51.606;-0.114;2023-03-24T05:21:19;99099.44;;;16.41;58.45
56504;BME280;48812;51.606;-0.114;2023-03-24T05:23:59;99107.44;;;16.41;58.12
56504;BME280;48812;51.606;-0.114;2023-03-24T05:26:39;99112.78;;;16.41;58.57
56504;BME280;48812;51.606;-0.114;2023-03-24T05:29:29;99114.72;;;16.39;58.21
56504;BME280;48812;51.606;-0.114;2023-03-24T05:32:09;99118.31;;;16.38;58.16
56504;BME280;48812;51.606;-0.114;2023-03-24T05:34:49;99112.13;;;16.37;58.31
56504;BME280;48812;51.606;-0.114;2023-03-24T05:37:29;99112.25;;;16.36;58.33
56504;BME280;48812;51.606;-0.114;2023-03-24T05:40:09;99114.91;;;16.36;57.98
56504;BME280;48812;51.606;-0.114;2023-03-24T05:42:59;99114.06;;;16.35;58.16
56504;BME280;48812;51.606;-0.114;2023-03-24T05:45:39;99122.19;;;16.34;58.08
56504;BME280;48812;51.606;-0.114;2023-03-24T05:48:19;99127.59;;;16.32;58.26
56504;BME280;48812;51.606;-0.114;2023-03-24T05:51:19;99132.06;;;16.32;58.12
56504;BME280;48812;51.606;-0.114;2023-03-24T05:54:09;99138.38;;;16.31;58.43
56504;BME280;48812;51.606;-0.114;2023-03-24T05:56:49;99137.53;;;16.30;58.11
56504;BME280;48812;51.606;-0.114;2023-03-24T05:59:49;99142.00;;;16.30;58.30
56504;BME280;48812;51.606;-0.114;2023-03-24T06:02:51;99139.44;;;16.28;58.33
56504;BME280;48812;51.606;-0.114;2023-03-24T06:05:39;99140.41;;;16.27;58.16
56504;BME280;48812;51.606;-0.114;2023-03-24T06:08:19;99149.25;;;16.28;58.42
56504;BME280;48812;51.606;-0.114;2023-03-24T06:11:00;99159.19;;;16.26;58.46
56504;BME280;48812;51.606;-0.114;2023-03-24T06:13:39;99152.03;;;16.26;58.66
56504;BME280;48812;51.606;-0.114;2023-03-24T06:16:19;99141.56;;;16.23;57.99
56504;BME280;48812;51.606;-0.114;2023-03-24T06:19:09;99147.72;;;16.23;58.26
56504;BME280;48812;51.606;-0.114;2023-03-24T06:22:19;99146.88;;;16.23;58.27
56504;BME280;48812;51.606;-0.114;2023-03-24T06:24:59;99146.06;;;16.22;58.61
56504;BME280;48812;51.606;-0.114;2023-03-24T06:27:42;99145.31;;;16.20;58.32
56504;BME280;48812;51.606;-0.114;2023-03-24T06:30:29;99147.97;;;16.20;58.28
56504;BME280;48812;51.606;-0.114;2023-03-24T06:33:09;99149.66;;;16.21;58.35
56504;BME280;48812;51.606;-0.114;2023-03-24T06:35:51;99152.31;;;16.21;58.46
56504;BME280;48812;51.606;-0.114;2023-03-24T06:38:29;99144.44;;;16.20;58.07
56504;BME280;48812;51.606;-0.114;2023-03-24T06:41:12;99152.44;;;16.20;58.62
56504;BME280;48812;51.606;-0.114;2023-03-24T06:43:49;99148.19;;;16.17;58.34
56504;BME280;48812;51.606;-0.114;2023-03-24T06:46:29;99146.25;;;16.19;58.39
56504;BME280;48812;51.606;-0.114;2023-03-24T06:49:09;99144.53;;;16.18;58.51
56504;BME280;48812;51.606;-0.114;2023-03-24T06:51:49;99153.50;;;16.17;58.31
56504;BME280;48812;51.606;-0.114;2023-03-24T06:54:29;99152.53;;;16.18;58.46
56504;BME280;48812;51.606;-0.114;2023-03-24T06:57:09;99149.88;;;16.18;58.91
56504;BME280;48812;51.606;-0.114;2023-03-24T07:00:09;99155.97;;;16.20;58.80
56504;BME280;48812;51.606;-0.114;2023-03-24T07:02:59;99153.31;;;16.20;58.45
56504;BME280;48812;51.606;-0.114;2023-03-24T07:05:40;99163.88;;;16.22;59.12
56504;BME280;48812;51.606;-0.114;2023-03-24T07:08:19;99169.06;;;16.23;58.92
56504;BME280;48812;51.606;-0.114;2023-03-24T07:11:09;99167.19;;;16.26;59.07
56504;BME280;48812;51.606;-0.114;2023-03-24T07:13:49;99174.00;;;16.30;59.01
56504;BME280;48812;51.606;-0.114;2023-03-24T07:16:29;99184.47;;;16.33;59.16
56504;BME280;48812;51.606;-0.114;2023-03-24T07:19:29;99176.38;;;16.34;59.07
56504;BME280;48812;51.606;-0.114;2023-03-24T07:22:29;99187.66;;;16.38;59.01
56504;BME280;48812;51.606;-0.114;2023-03-24T07:25:29;99192.81;;;16.41;59.13
56504;BME280;48812;51.606;-0.114;2023-03-24T07:28:19;99187.25;;;16.44;59.47
56504;BME280;48812;51.606;-0.114;2023-03-24T07:31:04;99197.72;;;16.47;59.22
56504;BME280;48812;51.606;-0.114;2023-03-24T07:33:39;99185.97;;;16.50;59.10
56504;BME280;48812;51.606;-0.114;2023-03-24T07:36:19;99194.66;;;16.53;59.38
56504;BME280;48812;51.606;-0.114;2023-03-24T07:38:59;99185.56;;;16.56;59.48
56504;BME280;48812;51.606;-0.114;2023-03-24T07:41:39;99190.69;;;16.59;59.17
56504;BME280;48812;51.606;-0.114;2023-03-24T07:44:29;99191.44;;;16.61;59.52
56504;BME280;48812;51.606;-0.114;2023-03-24T07:47:09;99187.72;;;16.64;59.35
56504;BME280;48812;51.606;-0.114;2023-03-24T07:49:49;99181.31;;;16.66;59.47
56504;BME280;48812;51.606;-0.114;2023-03-24T07:52:29;99185.59;;;16.69;59.59
56504;BME280;48812;51.606;-0.114;2023-03-24T07:55:10;99182.72;;;16.72;59.57
56504;BME280;48812;51.606;-0.114;2023-03-24T07:58:09;99183.44;;;16.74;59.57
56504;BME280;48812;51.606;-0.114;2023-03-24T08:00:49;99184.97;;;16.78;59.64
56504;BME280;48812;51.606;-0.114;2023-03-24T08:03:39;99190.06;;;16.81;59.51
56504;BME280;48812;51.606;-0.114;2023-03-24T08:06:41;99182.81;;;16.83;59.30
56504;BME280;48812;51.606;-0.114;2023-03-24T08:09:19;99187.06;;;16.86;59.78
56504;BME280;48812;51.606;-0.114;2023-03-24T08:11:59;99184.31;;;16.87;59.44
56504;BME280;48812;51.606;-0.114;2023-03-24T08:14:50;99189.44;;;16.90;59.56
56504;BME280;48812;51.606;-0.114;2023-03-24T08:17:29;99198.19;;;16.92;59.80
56504;BME280;48812;51.606;-0.114;2023-03-24T08:20:10;99197.22;;;16.93;59.63
56504;BME280;48812;51.606;-0.114;2023-03-24T08:22:49;99189.22;;;16.93;59.24
56504;BME280;48812;51.606;-0.114;2023-03-24T08:25:29;99197.75;;;16.99;59.66
56504;BME280;48812;51.606;-0.114;2023-03-24T08:28:10;99192.31;;;17.00;59.87
56504;BME280;48812;51.606;-0.114;2023-03-24T08:30:49;99193.94;;;17.03;59.42
56504;BME280;48812;51.606;-0.114;2023-03-24T08:33:29;99200.00;;;17.05;60.07
56504;BME280;48812;51.606;-0.114;2023-03-24T08:36:09;99193.69;;;17.06;59.80
56504;BME280;48812;51.606;-0.114;2023-03-24T08:38:49;99190.91;;;17.07;59.76
56504;BME280;48812;51.606;-0.114;2023-03-24T08:41:29;99199.59;;;17.11;59.68
56504;BME280;48812;51.606;-0.114;2023-03-24T08:44:09;99202.00;;;17.14;59.92
56504;BME280;48812;51.606;-0.114;2023-03-24T08:46:49;99203.72;;;17.15;60.42
56504;BME280;48812;51.606;-0.114;2023-03-24T08:49:29;99201.78;;;17.17;59.58
56504;BME280;48812;51.606;-0.114;2023-03-24T08:52:09;99204.38;;;17.19;59.76
56504;BME280;48812;51.606;-0.114;2023-03-24T08:54:49;99204.25;;;17.20;59.61
56504;BME280;48812;51.606;-0.114;2023-03-24T08:57:30;99205.00;;;17.22;60.44
56504;BME280;48812;51.606;-0.114;2023-03-24T09:00:10;99202.31;;;17.22;59.92
56504;BME280;48812;51.606;-0.114;2023-03-24T09:02:51;99206.72;;;17.23;60.22
56504;BME280;48812;51.606;-0.114;2023-03-24T09:05:29;99216.25;;;17.27;60.01
56504;BME280;48812;51.606;-0.114;2023-03-24T09:08:29;99214.34;;;17.29;60.33
56504;BME280;48812;51.606;-0.114;2023-03-24T09:11:16;99208.00;;;17.30;59.69
56504;BME280;48812;51.606;-0.114;2023-03-24T09:13:59;99208.78;;;17.32;59.67
56504;BME280;48812;51.606;-0.114;2023-03-24T09:16:39;99207.69;;;17.35;59.97
56504;BME280;48812;51.606;-0.114;2023-03-24T09:19:20;99203.94;;;17.38;59.35
56504;BME280;48812;51.606;-0.114;2023-03-24T09:21:59;99202.97;;;17.39;59.77
56504;BME280;48812;51.606;-0.114;2023-03-24T09:24:39;99207.38;;;17.40;59.35
56504;BME280;48812;51.606;-0.114;2023-03-24T09:27:19;99206.41;;;17.41;59.41
56504;BME280;48812;51.606;-0.114;2023-03-24T09:29:59;99203.75;;;17.41;59.68
56504;BME280;48812;51.606;-0.114;2023-03-24T09:32:39;99200.09;;;17.42;59.64
56504;BME280;48812;51.606;-0.114;2023-03-24T09:35:19;99210.78;;;17.42;59.44
56504;BME280;48812;51.606;-0.114;2023-03-24T09:37:59;99196.47;;;17.43;59.35
56504;BME280;48812;51.606;-0.114;2023-03-24T09:40:40;99191.97;;;17.43;59.98
56504;BME280;48812;51.606;-0.114;2023-03-24T09:46:00;99194.75;;;17.42;59.25
56504;BME280;48812;51.606;-0.114;2023-03-24T09:48:50;99195.50;;;17.44;59.17
56504;BME280;48812;51.606;-0.114;2023-03-24T09:51:37;99207.16;;;17.43;59.69
56504;BME280;48812;51.606;-0.114;2023-03-24T09:54:55;99208.97;;;17.42;59.54
56504;BME280;48812;51.606;-0.114;2023-03-24T09:57:41;99208.09;;;17.42;59.97
56504;BME280;48812;51.606;-0.114;2023-03-24T10:00:22;99209.94;;;17.41;59.39
56504;BME280;48812;51.606;-0.114;2023-03-24T10:03:18;99214.44;;;17.41;59.51
56504;BME280;48812;51.606;-0.114;2023-03-24T10:09:33;99210.03;;;17.40;59.53
56504;BME280;48812;51.606;-0.114;2023-03-24T10:12:27;99217.19;;;17.39;59.83
56504;BME280;48812;51.606;-0.114;2023-03-24T10:18:33;99215.16;;;17.43;59.51
56504;BME280;48812;51.606;-0.114;2023-03-24T10:21:16;99220.50;;;17.43;59.46
56504;BME280;48812;51.606;-0.114;2023-03-24T10:24:11;99221.47;;;17.42;59.41
56504;BME280;48812;51.606;-0.114;2023-03-24T10:29:39;99217.63;;;17.46;59.25
56504;BME280;48812;51.606;-0.114;2023-03-24T10:32:24;99207.78;;;17.46;59.48
56504;BME280;48812;51.606;-0.114;2023-03-24T10:35:15;99222.97;;;17.46;59.40
56504;BME280;48812;51.606;-0.114;2023-03-24T10:38:25;99210.56;;;17.45;59.09
56504;BME280;48812;51.606;-0.114;2023-03-24T10:41:00;99212.50;;;17.43;59.37
56504;BME280;48812;51.606;-0.114;2023-03-24T10:43:39;99215.91;;;17.45;59.35
56504;BME280;48812;51.606;-0.114;2023-03-24T10:46:21;99211.44;;;17.45;59.30
56504;BME280;48812;51.606;-0.114;2023-03-24T10:49:15;99211.53;;;17.44;59.71
56504;BME280;48812;51.606;-0.114;2023-03-24T10:51:52;99216.78;;;17.45;58.76
56504;BME280;48812;51.606;-0.114;2023-03-24T10:54:30;99215.91;;;17.45;58.93
56504;BME280;48812;51.606;-0.114;2023-03-24T10:57:16;99219.56;;;17.44;59.29
56504;BME280;48812;51.606;-0.114;2023-03-24T11:00:08;99216.13;;;17.42;59.01
56504;BME280;48812;51.606;-0.114;2023-03-24T11:05:40;99228.53;;;17.43;58.84
56504;BME280;48812;51.606;-0.114;2023-03-24T11:08:35;99217.94;;;17.41;58.48
56504;BME280;48812;51.606;-0.114;2023-03-24T11:11:29;99210.78;;;17.42;58.86
56504;BME280;48812;51.606;-0.114;2023-03-24T11:14:22;99221.47;;;17.42;58.97
56504;BME280;48812;51.606;-0.114;2023-03-24T11:17:11;99209.09;;;17.41;58.60
56504;BME280;48812;51.606;-0.114;2023-03-24T11:19:54;99207.38;;;17.40;58.29
56504;BME280;48812;51.606;-0.114;2023-03-24T11:22:29;99194.75;;;17.42;59.07
56504;BME280;48812;51.606;-0.114;2023-03-24T11:25:13;99202.66;;;17.43;59.14
56504;BME280;48812;51.606;-0.114;2023-03-24T11:27:49;99191.13;;;17.43;59.48
56504;BME280;48812;51.606;-0.114;2023-03-24T11:30:33;99190.28;;;17.42;58.66
56504;BME280;48812;51.606;-0.114;2023-03-24T11:39:23;99184.72;;;17.45;58.78
56504;BME280;48812;51.606;-0.114;2023-03-24T11:42:14;99185.44;;;17.47;59.19
56504;BME280;48812;51.606;-0.114;2023-03-24T11:44:50;99181.91;;;17.47;58.60
56504;BME280;48812;51.606;-0.114;2023-03-24T11:47:30;99190.56;;;17.50;58.72
56504;BME280;48812;51.606;-0.114;2023-03-24T11:53:14;99193.13;;;17.52;59.00
56504;BME280;48812;51.606;-0.114;2023-03-24T12:15:12;99209.47;;;17.60;58.53
56504;BME280;48812;51.606;-0.114;2023-03-24T12:24:55;99193.19;;;17.63;58.12
56504;BME280;48812;51.606;-0.114;2023-03-24T12:39:09;99192.34;;;17.63;57.89
56504;BME280;48812;51.606;-0.114;2023-03-24T12:41:51;99184.22;;;17.64;58.05
56504;BME280;48812;51.606;-0.114;2023-03-24T12:50:19;99194.91;;;17.64;58.32
56504;BME280;48812;51.606;-0.114;2023-03-24T12:58:48;99194.28;;;17.61;58.20
56504;BME280;48812;51.606;-0.114;2023-03-24T13:01:37;99182.97;;;17.57;57.83
56504;BME280;48812;51.606;-0.114;2023-03-24T13:04:32;99179.09;;;17.61;58.54
56504;BME280;48812;51.606;-0.114;2023-03-24T13:07:16;99192.34;;;17.63;58.01
56504;BME280;48812;51.606;-0.114;2023-03-24T13:10:04;99164.78;;;17.62;58.08
56504;BME280;48812;51.606;-0.114;2023-03-24T13:15:44;99164.31;;;17.68;58.10
56504;BME280;48812;51.606;-0.114;2023-03-24T13:18:30;99157.78;;;17.73;58.04
56504;BME280;48812;51.606;-0.114;2023-03-24T13:21:15;99161.94;;;17.77;57.86
56504;BME280;48812;51.606;-0.114;2023-03-24T13:30:23;99151.16;;;17.90;57.96
56504;BME280;48812;51.606;-0.114;2023-03-24T13:33:12;99156.28;;;17.93;57.66
56504;BME280;48812;51.606;-0.114;2023-03-24T13:38:42;99153.28;;;17.97;57.95
56504;BME280;48812;51.606;-0.114;2023-03-24T13:41:21;99153.38;;;17.96;57.43
56504;BME280;48812;51.606;-0.114;2023-03-24T13:44:07;99169.78;;;17.91;57.63
56504;BME280;48812;51.606;-0.114;2023-03-24T13:49:41;99170.47;;;17.82;57.49
56504;BME280;48812;51.606;-0.114;2023-03-24T13:52:25;99159.28;;;17.77;57.12
56504;BME280;48812;51.606;-0.114;2023-03-24T13:55:29;99158.72;;;17.72;57.21
56504;BME280;48812;51.606;-0.114;2023-03-24T13:58:19;99151.91;;;17.67;57.01
56504;BME280;48812;51.606;-0.114;2023-03-24T14:07:32;99169.81;;;17.54;57.32
56504;BME280;48812;51.606;-0.114;2023-03-24T14:12:53;99161.75;;;17.67;58.04
56504;BME280;48812;51.606;-0.114;2023-03-24T14:21:02;99147.31;;;18.29;56.88
56504;BME280;48812;51.606;-0.114;2023-03-24T14:23:43;99144.69;;;18.98;56.09
56504;BME280;48812;51.606;-0.114;2023-03-24T14:26:32;99140.53;;;19.83;54.39
56504;BME280;48812;51.606;-0.114;2023-03-24T14:29:46;99123.69;;;20.46;52.69
56504;BME280;48812;51.606;-0.114;2023-03-24T14:32:29;99124.94;;;20.94;51.91
56504;BME280;48812;51.606;-0.114;2023-03-24T14:35:25;99120.47;;;21.04;51.03
56504;BME280;48812;51.606;-0.114;2023-03-24T14:40:56;99115.19;;;21.33;50.33
56504;BME280;48812;51.606;-0.114;2023-03-24T14:52:03;99099.28;;;20.80;50.39
56504;BME280;48812;51.606;-0.114;2023-03-24T14:57:40;99084.06;;;20.59;50.42
56504;BME280;48812;51.606;-0.114;2023-03-24T15:00:33;99079.94;;;20.55;50.44
56504;BME280;48812;51.606;-0.114;2023-03-24T15:06:29;99099.66;;;20.23;50.87
56504;BME280;48812;51.606;-0.114;2023-03-24T15:09:09;99134.75;;;19.99;51.22
56504;BME280;48812;51.606;-0.114;2023-03-24T15:11:49;99130.31;;;19.77;51.28
56504;BME280;48812;51.606;-0.114;2023-03-24T15:14:29;99112.34;;;19.57;51.82
56504;BME280;48812;51.606;-0.114;2023-03-24T15:17:20;99115.53;;;19.39;52.03
56504;BME280;48812;51.606;-0.114;2023-03-24T15:19:59;99123.97;;;19.23;52.49
56504;BME280;48812;51.606;-0.114;2023-03-24T15:22:40;99143.94;;;19.08;52.68
56504;BME280;48812;51.606;-0.114;2023-03-24T15:25:24;99150.50;;;18.92;53.54
56504;BME280;48812;51.606;-0.114;2023-03-24T15:27:59;99129.19;;;18.79;53.34
56504;BME280;48812;51.606;-0.114;2023-03-24T15:30:39;99147.06;;;18.68;53.66
56504;BME280;48812;51.606;-0.114;2023-03-24T15:33:19;99154.13;;;18.57;53.59
56504;BME280;48812;51.606;-0.114;2023-03-24T15:35:59;99147.03;;;18.45;53.79
56504;BME280;48812;51.606;-0.114;2023-03-24T15:38:44;99128.03;;;18.37;54.28
56504;BME280;48812;51.606;-0.114;2023-03-24T15:41:21;99149.13;;;18.29;53.92
56504;BME280;48812;51.606;-0.114;2023-03-24T15:43:59;99143.50;;;18.20;54.45
56504;BME280;48812;51.606;-0.114;2023-03-24T15:46:41;99136.94;;;18.13;54.43
56504;BME280;48812;51.606;-0.114;2023-03-24T15:49:24;99124.97;;;18.06;54.84
56504;BME280;48812;51.606;-0.114;2023-03-24T15:58:28;99104.13;;;17.87;55.30
56504;BME280;48812;51.606;-0.114;2023-03-24T16:01:09;99102.66;;;17.83;55.52
56504;BME280;48812;51.606;-0.114;2023-03-24T16:03:49;99100.97;;;17.82;55.83
56504;BME280;48812;51.606;-0.114;2023-03-24T16:06:33;99094.06;;;17.91;55.41
56504;BME280;48812;51.606;-0.114;2023-03-24T16:09:14;99094.59;;;18.07;55.75
56504;BME280;48812;51.606;-0.114;2023-03-24T16:11:49;99089.66;;;18.25;55.57
56504;BME280;48812;51.606;-0.114;2023-03-24T16:14:29;99096.53;;;18.40;55.13
56504;BME280;48812;51.606;-0.114;2023-03-24T16:17:09;99089.00;;;18.46;55.20
56504;BME280;48812;51.606;-0.114;2023-03-24T16:19:49;99089.88;;;18.46;54.85
56504;BME280;48812;51.606;-0.114;2023-03-24T16:22:29;99088.75;;;18.49;55.38
56504;BME280;48812;51.606;-0.114;2023-03-24T16:25:09;99084.28;;;18.49;55.10
56504;BME280;48812;51.606;-0.114;2023-03-24T16:27:49;99098.00;;;18.45;54.34
56504;BME280;48812;51.606;-0.114;2023-03-24T16:30:32;99101.38;;;18.35;54.95
56504;BME280;48812;51.606;-0.114;2023-03-24T16:33:09;99116.19;;;18.28;54.63
56504;BME280;48812;51.606;-0.114;2023-03-24T16:35:49;99119.56;;;18.19;55.21
56504;BME280;48812;51.606;-0.114;2023-03-24T16:38:29;99104.13;;;18.11;55.28
56504;BME280;48812;51.606;-0.114;2023-03-24T16:41:09;99098.59;;;18.01;55.65
56504;BME280;48812;51.606;-0.114;2023-03-24T16:43:49;99094.69;;;17.94;55.45
56504;BME280;48812;51.606;-0.114;2023-03-24T16:46:31;99083.59;;;17.87;56.02
56504;BME280;48812;51.606;-0.114;2023-03-24T16:49:12;99109.81;;;17.82;55.61
56504;BME280;48812;51.606;-0.114;2023-03-24T16:51:49;99160.22;;;17.76;55.83
56504;BME280;48812;51.606;-0.114;2023-03-24T16:54:30;99141.00;;;17.71;55.39
56504;BME280;48812;51.606;-0.114;2023-03-24T16:57:09;99127.25;;;17.64;56.08
56504;BME280;48812;51.606;-0.114;2023-03-24T16:59:49;99134.63;;;17.60;56.24
56504;BME280;48812;51.606;-0.114;2023-03-24T17:02:29;99126.06;;;17.55;56.28
56504;BME280;48812;51.606;-0.114;2023-03-24T17:05:21;99124.63;;;17.51;56.75